createdAt,value
2022-10-25T00:00:10.229Z,13.74
2022-10-25T00:03:55.291Z,13.72
2022-10-25T00:07:50.679Z,13.74
2022-10-25T00:11:19.916Z,13.78
2022-10-25T00:14:49.031Z,13.80
2022-10-25T00:18:26.472Z,13.80
2022-10-25T00:22:04.195Z,13.81
2022-10-25T00:26:06.182Z,13.88
2022-10-25T00:29:45.583Z,13.86
2022-10-25T00:33:06.077Z,13.89
2022-10-25T00:36:43.833Z,13.87
2022-10-25T00:40:21.371Z,13.84
2022-10-25T00:44:45.521Z,13.80
2022-10-25T00:48:10.698Z,13.75
2022-10-25T00:51:54.114Z,13.74
2022-10-25T00:55:23.450Z,13.72
2022-10-25T00:59:26.571Z,13.68
2022-10-25T01:02:47.653Z,13.61
2022-10-25T01:06:50.200Z,13.56
2022-10-25T01:10:11.105Z,13.53
2022-10-25T01:13:49.465Z,13.49
2022-10-25T01:17:53.490Z,13.44
2022-10-25T01:21:44.417Z,13.39
2022-10-25T01:25:44.438Z,13.40
2022-10-25T01:29:53.525Z,13.43
2022-10-25T01:33:25.467Z,13.37
2022-10-25T01:37:08.209Z,13.29
2022-10-25T01:40:59.641Z,13.21
2022-10-25T01:44:39.121Z,13.10
2022-10-25T01:48:23.221Z,13.02
2022-10-25T01:51:44.103Z,12.90
2022-10-25T01:55:28.054Z,12.75
2022-10-25T01:59:44.139Z,12.64
2022-10-25T02:03:58.365Z,12.50
2022-10-25T02:07:47.439Z,12.36
2022-10-25T02:11:30.693Z,12.22
2022-10-25T02:15:14.922Z,12.09
2022-10-25T02:18:41.784Z,11.98
2022-10-25T02:22:15.973Z,11.87
2022-10-25T02:25:53.693Z,11.76
2022-10-25T02:29:33.232Z,11.68
2022-10-25T02:33:26.320Z,11.64
2022-10-25T02:37:05.980Z,11.64
2022-10-25T02:40:45.566Z,11.68
2022-10-25T02:44:05.978Z,11.71
2022-10-25T02:48:02.290Z,11.76
2022-10-25T02:51:23.249Z,11.80
2022-10-25T02:55:00.282Z,11.83
2022-10-25T02:58:39.861Z,11.85
2022-10-25T03:02:15.915Z,11.89
2022-10-25T03:05:53.664Z,11.96
2022-10-25T03:09:31.271Z,12.03
2022-10-25T03:13:08.715Z,12.11
2022-10-25T03:17:07.516Z,12.22
2022-10-25T03:20:28.225Z,12.27
2022-10-25T03:24:06.138Z,12.29
2022-10-25T03:28:02.406Z,12.30
2022-10-25T03:31:23.247Z,12.31
2022-10-25T03:35:00.954Z,12.30
2022-10-25T03:38:38.724Z,12.26
2022-10-25T03:42:16.160Z,12.27
2022-10-25T03:46:12.875Z,12.26
2022-10-25T03:49:33.418Z,12.27
2022-10-25T03:53:11.580Z,12.29
2022-10-25T03:56:48.806Z,12.34
2022-10-25T04:00:27.460Z,12.35
2022-10-25T04:04:04.486Z,12.31
2022-10-25T04:07:42.465Z,12.28
2022-10-25T04:11:19.461Z,12.27
2022-10-25T04:15:16.064Z,12.29
2022-10-25T04:18:36.682Z,12.30
2022-10-25T04:22:14.458Z,12.27
2022-10-25T04:25:56.543Z,12.28
2022-10-25T04:29:29.769Z,12.23
2022-10-25T04:33:07.764Z,12.17
2022-10-25T04:36:44.975Z,12.18
2022-10-25T04:40:24.967Z,12.18
2022-10-25T04:44:00.384Z,12.25
2022-10-25T04:47:56.877Z,12.30
2022-10-25T04:51:17.407Z,12.32
2022-10-25T04:54:55.143Z,12.28
2022-10-25T04:58:33.732Z,12.26
2022-10-25T05:02:29.084Z,12.25
2022-10-25T05:05:49.335Z,12.22
2022-10-25T05:09:27.216Z,12.25
2022-10-25T05:13:04.859Z,12.25
2022-10-25T05:16:43.362Z,12.18
2022-10-25T05:20:20.077Z,12.10
2022-10-25T05:24:01.765Z,12.00
2022-10-25T05:27:39.142Z,11.93
2022-10-25T05:31:32.807Z,11.84
2022-10-25T05:35:13.106Z,11.77
2022-10-25T05:38:52.234Z,11.73
2022-10-25T05:42:31.917Z,11.75
2022-10-25T05:46:00.761Z,11.73
2022-10-25T05:49:30.055Z,11.69
2022-10-25T05:53:08.059Z,11.69
2022-10-25T05:56:45.416Z,11.69
2022-10-25T06:00:23.223Z,11.72
2022-10-25T06:04:00.859Z,11.80
2022-10-25T06:07:57.289Z,11.87
2022-10-25T06:11:19.764Z,11.90
2022-10-25T06:14:55.321Z,11.92
2022-10-25T06:18:53.774Z,12.01
2022-10-25T06:22:14.308Z,12.07
2022-10-25T06:26:14.154Z,12.14
2022-10-25T06:29:53.236Z,12.23
2022-10-25T06:33:13.540Z,12.28
2022-10-25T06:36:51.469Z,12.31
2022-10-25T06:40:29.071Z,12.35
2022-10-25T06:44:07.702Z,12.36
2022-10-25T06:47:46.586Z,12.37
2022-10-25T06:51:41.081Z,12.43
2022-10-25T06:55:02.090Z,12.45
2022-10-25T06:58:39.414Z,12.46
2022-10-25T07:02:17.368Z,12.51
2022-10-25T07:05:54.347Z,12.55
2022-10-25T07:09:50.830Z,12.55
2022-10-25T07:13:11.210Z,12.59
2022-10-25T07:17:07.605Z,12.66
2022-10-25T07:20:28.190Z,12.80
2022-10-25T07:24:06.051Z,12.91
2022-10-25T07:28:02.557Z,12.98
2022-10-25T07:31:29.115Z,13.02
2022-10-25T07:35:19.900Z,13.13
2022-10-25T07:38:41.145Z,13.22
2022-10-25T07:42:37.355Z,13.25
2022-10-25T07:46:16.887Z,13.32
2022-10-25T07:49:38.870Z,13.40
2022-10-25T07:53:34.022Z,13.36
2022-10-25T07:56:54.930Z,13.35
2022-10-25T08:00:34.658Z,13.30
2022-10-25T08:07:57.800Z,13.17
2022-10-25T08:11:35.735Z,13.13
2022-10-25T08:15:13.856Z,13.11
2022-10-25T08:18:50.894Z,13.19
2022-10-25T08:22:28.475Z,13.29
2022-10-25T08:26:06.649Z,13.30
2022-10-25T08:29:43.864Z,13.31
2022-10-25T08:33:21.642Z,13.34
2022-10-25T08:37:18.124Z,13.32
2022-10-25T08:41:00.633Z,13.28
2022-10-25T08:44:26.619Z,13.18
2022-10-25T08:48:23.309Z,13.11
2022-10-25T08:51:47.284Z,13.04
2022-10-25T08:55:58.884Z,13.00
2022-10-25T08:59:29.607Z,12.96
2022-10-25T09:03:02.300Z,12.93
2022-10-25T09:06:48.452Z,12.85
2022-10-25T09:10:37.656Z,12.85
2022-10-25T09:14:12.685Z,12.84
2022-10-25T09:17:51.788Z,12.90
2022-10-25T09:21:39.066Z,12.99
2022-10-25T09:25:16.983Z,13.07
2022-10-25T09:29:03.724Z,13.17
2022-10-25T09:32:35.479Z,13.29
2022-10-25T09:36:04.545Z,13.53
2022-10-25T09:39:49.194Z,13.66
2022-10-25T09:43:24.183Z,13.66
2022-10-25T09:47:42.785Z,13.62
2022-10-25T09:51:22.878Z,13.74
2022-10-25T09:54:51.404Z,13.95
2022-10-25T09:58:25.016Z,14.06
2022-10-25T10:02:24.020Z,14.10
2022-10-25T10:05:57.915Z,14.05
2022-10-25T10:09:45.863Z,14.07
2022-10-25T10:13:28.979Z,14.13
2022-10-25T10:17:14.526Z,14.17
2022-10-25T10:20:35.367Z,14.22
2022-10-25T10:24:35.525Z,14.25
2022-10-25T10:27:58.217Z,14.30
2022-10-25T10:32:00.060Z,14.32
2022-10-25T10:35:39.361Z,14.37
2022-10-25T10:39:20.469Z,14.35
2022-10-25T10:42:42.767Z,14.34
2022-10-25T10:46:20.222Z,14.41
2022-10-25T10:50:22.099Z,14.52
2022-10-25T10:53:43.638Z,14.58
2022-10-25T10:57:29.496Z,14.57
2022-10-25T11:01:30.451Z,14.71
2022-10-25T11:04:53.932Z,14.86
2022-10-25T11:08:28.984Z,15.01
2022-10-25T11:12:11.454Z,15.27
2022-10-25T11:15:50.490Z,15.37
2022-10-25T11:20:06.692Z,15.32
2022-10-25T11:24:15.579Z,15.38
2022-10-25T11:28:09.331Z,15.46
2022-10-25T11:32:05.267Z,15.71
2022-10-25T11:35:54.026Z,15.80
2022-10-25T11:39:33.996Z,15.99
2022-10-25T11:43:19.369Z,16.34
2022-10-25T11:46:48.214Z,16.64
2022-10-25T11:50:30.800Z,16.80
2022-10-25T11:54:39.659Z,16.80
2022-10-25T11:58:37.687Z,16.63
2022-10-25T12:02:46.288Z,16.48
2022-10-25T12:06:52.131Z,16.42
2022-10-25T12:10:39.985Z,16.28
2022-10-25T12:14:11.630Z,16.19
2022-10-25T12:17:41.268Z,16.09
2022-10-25T12:21:31.141Z,16.02
2022-10-25T12:25:48.463Z,15.94
2022-10-25T12:29:17.775Z,15.81
2022-10-25T12:32:57.675Z,15.66
2022-10-25T12:36:35.146Z,15.57
2022-10-25T12:40:02.509Z,15.51
2022-10-25T12:44:01.197Z,15.95
2022-10-25T12:47:43.252Z,16.54
2022-10-25T12:51:46.707Z,16.51
2022-10-25T12:55:56.708Z,16.35
2022-10-25T12:59:49.721Z,16.18
2022-10-25T13:03:38.496Z,15.96
2022-10-25T13:07:00.616Z,15.76
2022-10-25T13:10:43.796Z,15.52
2022-10-25T13:14:22.544Z,15.40
2022-10-25T13:18:31.166Z,15.30
2022-10-25T13:21:55.018Z,15.18
2022-10-25T13:25:48.954Z,15.09
2022-10-25T13:30:01.291Z,15.10
2022-10-25T13:33:24.408Z,15.18
2022-10-25T13:37:02.546Z,15.53
2022-10-25T13:40:38.905Z,16.96
2022-10-25T13:44:21.867Z,18.21
2022-10-25T13:47:55.696Z,19.80
2022-10-25T13:51:33.058Z,21.46
2022-10-25T13:55:15.734Z,22.81
2022-10-25T13:58:53.949Z,23.33
2022-10-25T14:02:24.822Z,23.67
2022-10-25T14:06:03.572Z,24.00
2022-10-25T14:10:00.163Z,24.28
2022-10-25T14:14:12.565Z,23.29
2022-10-25T14:17:42.707Z,21.63
2022-10-25T14:21:31.028Z,20.43
2022-10-25T14:25:16.946Z,19.73
2022-10-25T14:28:38.560Z,20.23
2022-10-25T14:32:21.273Z,20.23
2022-10-25T14:35:57.023Z,19.62
2022-10-25T14:39:52.237Z,19.09
2022-10-25T14:43:22.756Z,18.55
2022-10-25T14:46:51.786Z,18.21
2022-10-25T14:50:28.347Z,17.67
2022-10-25T14:54:20.211Z,17.07
2022-10-25T14:58:03.653Z,16.68
2022-10-25T15:01:25.247Z,16.32
2022-10-25T15:05:04.853Z,16.07
2022-10-25T15:08:41.902Z,15.81
2022-10-25T15:12:22.826Z,15.62
2022-10-25T15:16:41.873Z,15.49
2022-10-25T15:20:21.269Z,15.35
2022-10-25T15:23:44.546Z,15.16
2022-10-25T15:27:40.555Z,14.87
2022-10-25T15:31:04.922Z,14.65
2022-10-25T15:35:01.109Z,14.51
2022-10-25T15:38:37.143Z,14.35
2022-10-25T15:42:08.480Z,14.20
2022-10-25T15:45:45.504Z,14.06
2022-10-25T15:49:25.711Z,13.96
2022-10-25T15:53:01.350Z,13.83
2022-10-25T15:56:57.327Z,13.62
2022-10-25T16:00:27.114Z,13.39
2022-10-25T16:03:55.947Z,13.23
2022-10-25T16:07:52.727Z,13.11
2022-10-25T16:11:17.318Z,13.03
2022-10-25T16:14:52.418Z,12.96
2022-10-25T16:18:29.667Z,12.91
2022-10-25T16:22:07.477Z,12.88
2022-10-25T16:25:44.289Z,12.87
2022-10-25T16:29:24.711Z,12.85
2022-10-25T16:32:59.603Z,12.80
2022-10-25T16:36:37.866Z,12.73
2022-10-25T16:40:16.182Z,12.65
2022-10-25T16:43:52.696Z,12.50
2022-10-25T16:47:30.285Z,12.32
2022-10-25T16:51:12.853Z,12.21
2022-10-25T16:55:05.015Z,12.16
2022-10-25T16:58:44.748Z,12.15
2022-10-25T17:02:07.202Z,12.22
2022-10-25T17:06:22.236Z,12.30
2022-10-25T17:09:46.031Z,12.36
2022-10-25T17:13:23.403Z,12.37
2022-10-25T17:17:03.202Z,12.34
2022-10-25T17:20:38.852Z,12.32
2022-10-25T17:24:16.997Z,12.25
2022-10-25T17:27:54.265Z,12.22
2022-10-25T17:31:34.643Z,12.21
2022-10-25T17:35:10.067Z,12.21
2022-10-25T17:39:07.411Z,12.23
2022-10-25T17:42:28.417Z,12.20
2022-10-25T17:46:10.165Z,12.18
2022-10-25T17:50:04.629Z,12.12
2022-10-25T17:53:25.669Z,12.05
2022-10-25T17:57:04.355Z,11.97
2022-10-25T18:00:40.709Z,11.96
2022-10-25T18:04:18.417Z,11.96
2022-10-25T18:07:55.942Z,11.94
2022-10-25T18:11:33.681Z,11.93
2022-10-25T18:15:32.846Z,11.91
2022-10-25T18:19:14.754Z,11.88
2022-10-25T18:22:39.864Z,11.85
2022-10-25T18:26:33.312Z,11.82
2022-10-25T18:29:54.632Z,11.80
2022-10-25T18:33:50.112Z,11.78
2022-10-25T18:37:10.937Z,11.79
2022-10-25T18:40:48.762Z,11.83
2022-10-25T18:44:25.859Z,11.87
2022-10-25T18:48:03.728Z,11.88
2022-10-25T18:51:41.890Z,11.82
2022-10-25T18:55:38.046Z,11.74
2022-10-25T18:59:17.656Z,11.66
2022-10-25T19:02:38.316Z,11.58
2022-10-25T19:06:16.423Z,11.54
2022-10-25T19:10:12.613Z,11.51
2022-10-25T19:13:34.062Z,11.53
2022-10-25T19:17:11.201Z,11.56
2022-10-25T19:21:10.337Z,11.57
2022-10-25T19:24:33.736Z,11.58
2022-10-25T19:28:08.974Z,11.56
2022-10-25T19:32:06.033Z,11.50
2022-10-25T19:35:26.919Z,11.45
2022-10-25T19:39:05.293Z,11.39
2022-10-25T19:42:42.187Z,11.36
2022-10-25T19:46:38.700Z,11.33
2022-10-25T19:49:59.706Z,11.30
2022-10-25T19:53:39.337Z,11.27
2022-10-25T19:57:14.978Z,11.19
2022-10-25T20:01:12.591Z,11.12
2022-10-25T20:04:33.755Z,11.10
2022-10-25T20:08:11.624Z,11.07
2022-10-25T20:11:49.233Z,11.03
2022-10-25T20:15:50.940Z,10.97
2022-10-25T20:19:13.729Z,10.93
2022-10-25T20:22:49.275Z,10.83
2022-10-25T20:26:29.561Z,10.74
2022-10-25T20:30:05.044Z,10.70
2022-10-25T20:33:42.835Z,10.66
2022-10-25T20:37:19.906Z,10.62
2022-10-25T20:41:19.240Z,10.57
2022-10-25T20:44:39.804Z,10.52
2022-10-25T20:48:17.370Z,10.46
2022-10-25T20:52:14.694Z,10.40
2022-10-25T20:55:36.362Z,10.34
2022-10-25T20:59:33.307Z,10.26
2022-10-25T21:02:55.293Z,10.13
2022-10-25T21:06:32.110Z,10.07
2022-10-25T21:10:09.748Z,10.07
2022-10-25T21:13:47.416Z,10.07
2022-10-25T21:17:25.311Z,10.08
2022-10-25T21:21:05.578Z,10.14
2022-10-25T21:24:40.288Z,10.18
2022-10-25T21:28:39.417Z,10.18
2022-10-25T21:32:00.129Z,10.14
2022-10-25T21:35:37.954Z,10.07
2022-10-25T21:39:19.720Z,10.02
2022-10-25T21:43:12.132Z,10.04
2022-10-25T21:46:32.404Z,10.05
2022-10-25T21:50:10.435Z,10.07
2022-10-25T21:53:48.256Z,10.05
2022-10-25T21:57:25.993Z,10.01
2022-10-25T22:01:09.651Z,9.94
2022-10-25T22:04:43.665Z,9.86
2022-10-25T22:08:21.946Z,9.79
2022-10-25T22:11:56.364Z,9.76
2022-10-25T22:15:58.415Z,9.74
2022-10-25T22:19:21.243Z,9.74
2022-10-25T22:22:57.874Z,9.69
2022-10-25T22:26:53.465Z,9.69
2022-10-25T22:30:33.337Z,9.68
2022-10-25T22:33:56.296Z,9.62
2022-10-25T22:37:31.920Z,9.57
2022-10-25T22:41:15.329Z,9.54
2022-10-25T22:44:47.350Z,9.58
2022-10-25T22:48:24.977Z,9.62
2022-10-25T22:52:02.526Z,9.66
2022-10-25T22:55:40.213Z,9.72
2022-10-25T22:59:36.653Z,9.77
2022-10-25T23:02:57.566Z,9.76
2022-10-25T23:06:37.708Z,9.71
2022-10-25T23:10:31.708Z,9.67
2022-10-25T23:14:14.964Z,9.63
2022-10-25T23:17:58.704Z,9.63
2022-10-25T23:21:23.399Z,9.64
2022-10-25T23:24:57.383Z,9.65
2022-10-25T23:28:35.263Z,9.59
2022-10-25T23:32:12.762Z,9.50
2022-10-25T23:35:50.259Z,9.42
2022-10-25T23:39:28.097Z,9.30
2022-10-25T23:43:06.304Z,9.16
2022-10-25T23:47:02.102Z,9.04
2022-10-25T23:50:41.762Z,8.91
2022-10-25T23:54:02.731Z,8.80
2022-10-25T23:57:59.145Z,8.75
